Terminal Aerodrome Forecast
Issued by NWS Albany, NY

Home | Current Version | Previous Version | Text Only | Print | Product List | Glossary On
Versions: 1 2 3 4 5 6 7 8 9 10 11 12 13 14 15 16 17 18 19 20 21 22
000
FTUS41 KALY 231300 AAA
TAFPOU
TAF AMD
KPOU 231310Z 2313/2412 04003KT P6SM VCSH OVC025
      TEMPO 2313/2316 SCT025 OVC050
     FM231700 05005KT P6SM FEW035 BKN060
     FM240000 VRB03KT P6SM SCT050
     FM240800 00000KT 6SM BR BKN050=

USA.gov is the U.S. government's official web portal to all federal, state and local government web resources and services.